Time;durP1;ratioP1;P1;durP2;ratioP2;P2;SDS_P1;SDS_P2;PMS_P1;PMS_P2;Temp;Humidity;BMP_temperature;BMP_pressure;BME280_temperature;BME280_humidity;BME280_pressure;Samples;Min_cycle;Max_cycle;Signal;HPM_P1;HPM_P2
2021/07/12 00:01:53;;;;;;;2.00;1.80;;;;;;;17.94;83.72;99400.56;5054836;28;20304;-93
2021/07/12 00:04:20;;;;;;;2.10;1.90;;;;;;;18.06;83.41;99413.03;5038088;28;20291;-95
2021/07/12 00:06:47;;;;;;;1.83;1.63;;;;;;;18.03;83.59;99407.06;5038234;28;20304;-89
2021/07/12 00:09:13;;;;;;;2.20;2.00;;;;;;;18.09;83.68;99393.50;5037578;28;20222;-91
2021/07/12 00:11:40;;;;;;;2.00;1.90;;;;;;;18.08;83.66;99394.59;5021621;28;20679;-90
2021/07/12 00:14:08;;;;;;;2.40;2.00;;;;;;;18.10;83.55;99403.28;5037643;28;20233;-94
2021/07/12 00:16:34;;;;;;;2.50;2.00;;;;;;;18.10;83.90;99411.41;5038189;28;20239;-94
2021/07/12 00:19:02;;;;;;;2.30;2.10;;;;;;;18.12;83.56;99406.50;5038193;28;20256;-93
2021/07/12 00:21:29;;;;;;;2.73;2.40;;;;;;;18.03;83.36;99395.41;5054824;28;20235;-87
2021/07/12 00:23:56;;;;;;;2.60;2.40;;;;;;;18.01;83.42;99390.25;5037964;28;20251;-94
2021/07/12 00:26:22;;;;;;;2.67;2.20;;;;;;;17.98;84.02;99387.28;5037662;28;20432;-95
2021/07/12 00:28:50;;;;;;;3.67;2.53;;;;;;;17.96;83.81;99395.69;5054417;28;20289;-96
2021/07/12 00:31:17;;;;;;;3.33;2.70;;;;;;;17.98;83.75;99398.94;5037898;28;20308;-93
2021/07/12 00:33:44;;;;;;;2.63;2.43;;;;;;;17.95;84.29;99399.50;5070998;28;20260;-96
2021/07/12 00:36:11;;;;;;;2.80;2.57;;;;;;;17.91;84.39;99398.41;5053587;28;20304;-93
2021/07/12 00:38:38;;;;;;;2.70;2.47;;;;;;;17.97;84.44;99405.44;5054290;28;20249;-94
2021/07/12 00:41:05;;;;;;;2.60;2.40;;;;;;;17.93;84.34;99400.84;5021535;28;20226;-94
2021/07/12 00:43:34;;;;;;;2.87;2.60;;;;;;;17.94;84.43;99414.13;5070659;28;20227;-94
2021/07/12 00:46:01;;;;;;;2.67;2.47;;;;;;;17.91;84.62;99400.31;5070742;28;20225;-92
2021/07/12 00:48:28;;;;;;;4.40;2.57;;;;;;;17.94;84.83;99400.56;5037459;28;20541;-90
2021/07/12 00:50:56;;;;;;;2.70;2.50;;;;;;;17.98;84.43;99415.22;5070863;28;20226;-87
2021/07/12 00:53:23;;;;;;;2.90;2.70;;;;;;;17.92;84.33;99396.50;5054098;28;20233;-95
2021/07/12 00:55:53;;;;;;;2.40;2.20;;;;;;;18.03;83.95;99409.78;5054128;28;20229;-94
2021/07/12 00:58:22;;;;;;;2.77;2.20;;;;;;;18.12;83.42;99410.03;5037323;28;20245;-94
2021/07/12 01:00:58;;;;;;;3.30;2.73;;;;;;;18.02;83.26;99401.91;5037649;28;20221;-91
2021/07/12 01:03:28;;;;;;;3.23;2.90;;;;;;;17.86;84.02;99403.84;5037623;28;20225;-93
2021/07/12 01:05:56;;;;;;;2.77;2.47;;;;;;;17.88;83.62;99403.56;5071037;28;20225;-95
2021/07/12 01:08:25;;;;;;;2.93;2.73;;;;;;;17.83;83.59;99398.94;5053814;28;20324;-90
2021/07/12 01:11:18;;;;;;;2.80;2.60;;;;;;;17.82;83.58;99401.94;5038659;28;20233;-94
2021/07/12 01:13:55;;;;;;;3.27;3.03;;;;;;;17.73;83.63;99387.31;5037644;28;20237;-91
2021/07/12 01:16:45;;;;;;;2.90;2.70;;;;;;;17.71;84.61;99389.47;5053298;28;20233;-94
2021/07/12 01:19:29;;;;;;;3.10;2.90;;;;;;;17.71;85.18;99381.34;5053834;28;20226;-93
2021/07/12 01:22:34;;;;;;;3.50;2.97;;;;;;;17.72;84.69;99383.00;5023948;28;20225;-93
2021/07/12 01:25:38;;;;;;;3.10;2.80;;;;;;;17.76;85.41;99389.47;5058353;28;20225;-90
2021/07/12 01:28:32;;;;;;;3.23;2.93;;;;;;;17.75;86.02;99385.97;5073952;28;20229;-92
2021/07/12 01:31:09;;;;;;;3.67;3.10;;;;;;;17.74;85.94;99391.63;5041161;28;20228;-94
2021/07/12 01:33:47;;;;;;;3.10;2.80;;;;;;;17.74;86.24;99384.31;5040910;28;20233;-93
2021/07/12 01:36:21;;;;;;;3.40;2.80;;;;;;;17.64;85.37;99370.00;5074034;28;20225;-93
2021/07/12 01:39:05;;;;;;;3.10;2.70;;;;;;;17.73;85.64;99369.16;5041140;28;20236;-92
2021/07/12 01:41:48;;;;;;;3.00;2.57;;;;;;;17.62;85.44;99369.44;5041162;28;20419;-92
2021/07/12 01:44:43;;;;;;;3.30;3.00;;;;;;;17.66;85.66;99375.94;5040583;28;20237;-92
2021/07/12 01:47:32;;;;;;;2.90;2.60;;;;;;;17.64;85.67;99376.19;5074579;28;20568;-89
2021/07/12 01:50:09;;;;;;;3.27;2.97;;;;;;;17.69;85.39;99373.50;5040686;28;20225;-96
2021/07/12 01:52:57;;;;;;;2.90;2.70;;;;;;;17.65;85.42;99371.59;5056923;28;20233;-94
2021/07/12 01:55:42;;;;;;;3.17;2.97;;;;;;;17.53;85.36;99364.53;5057307;28;20505;-94
2021/07/12 01:58:36;;;;;;;3.17;2.97;;;;;;;17.53;85.33;99359.13;5056837;28;20229;-92
2021/07/12 02:01:06;;;;;;;4.03;3.37;;;;;;;17.44;85.44;99358.03;5040687;28;20229;-95
2021/07/12 02:03:33;;;;;;;3.83;3.20;;;;;;;17.42;85.70;99346.66;5040421;28;20254;-90
2021/07/12 02:06:02;;;;;;;3.47;3.17;;;;;;;17.48;85.94;99364.53;5040307;28;20248;-89
2021/07/12 02:08:31;;;;;;;3.50;3.20;;;;;;;17.47;85.68;99368.31;5024337;28;20224;-92
2021/07/12 02:10:59;;;;;;;3.50;3.20;;;;;;;17.40;85.78;99351.56;5057261;28;20225;-89
2021/07/12 02:13:35;;;;;;;3.60;3.00;;;;;;;17.44;85.95;99357.22;5041293;28;20235;-90
2021/07/12 02:16:12;;;;;;;3.10;2.73;;;;;;;17.32;86.06;99346.66;5041189;28;20308;-94
2021/07/12 02:18:41;;;;;;;3.50;2.80;;;;;;;17.22;85.64;99338.50;5040393;28;20227;-96
2021/07/12 02:21:32;;;;;;;2.80;2.60;;;;;;;17.22;86.37;99348.56;5028853;28;20248;-96
2021/07/12 02:24:04;;;;;;;3.40;2.63;;;;;;;17.22;86.18;99351.28;5056402;28;20652;-92
2021/07/12 02:26:34;;;;;;;2.80;2.60;;;;;;;17.05;86.58;99341.50;5040417;28;20529;-94
2021/07/12 02:29:03;;;;;;;3.20;3.00;;;;;;;17.10;86.51;99349.63;5040369;28;20229;-96
2021/07/12 02:31:34;;;;;;;2.90;2.57;;;;;;;17.05;86.53;99341.50;5055911;28;20699;-95
2021/07/12 02:34:03;;;;;;;2.83;2.63;;;;;;;17.06;86.61;99340.41;5039606;28;20240;-95
2021/07/12 02:36:31;;;;;;;3.40;3.03;;;;;;;16.94;86.56;99337.13;5056719;28;20229;-95
2021/07/12 02:38:59;;;;;;;3.13;2.90;;;;;;;16.91;86.81;99329.56;5023656;28;20252;-94
2021/07/12 02:41:27;;;;;;;2.83;2.63;;;;;;;16.99;86.83;99333.63;5040023;28;20225;-94
2021/07/12 02:43:55;;;;;;;2.90;2.60;;;;;;;16.94;87.01;99336.31;5039955;28;20225;-96
2021/07/12 02:46:24;;;;;;;3.60;2.70;;;;;;;16.97;87.12;99338.50;5023084;28;20617;-93
2021/07/12 02:48:52;;;;;;;3.03;2.83;;;;;;;16.96;87.16;99332.28;5023450;28;20252;-90
2021/07/12 02:51:31;;;;;;;3.10;2.90;;;;;;;17.00;87.13;99336.06;5023685;28;20248;-90
2021/07/12 02:54:04;;;;;;;3.20;2.83;;;;;;;17.02;86.70;99333.91;5073117;28;20525;-90
2021/07/12 02:56:32;;;;;;;3.17;2.87;;;;;;;17.00;86.92;99344.19;5039321;28;20225;-89
2021/07/12 02:58:59;;;;;;;3.00;2.80;;;;;;;17.10;86.76;99351.50;5039481;28;20260;-94
2021/07/12 03:01:28;;;;;;;3.17;2.40;;;;;;;17.10;86.95;99354.22;5039652;28;20551;-91
2021/07/12 03:03:56;;;;;;;2.77;2.57;;;;;;;17.06;86.64;99347.72;5039791;28;20600;-92
2021/07/12 03:06:29;;;;;;;2.60;2.40;;;;;;;17.02;86.47;99350.16;5039209;28;20236;-93
2021/07/12 03:09:04;;;;;;;3.13;2.30;;;;;;;17.01;86.45;99343.13;5039831;28;20221;-92
2021/07/12 03:11:41;;;;;;;3.10;2.50;;;;;;;16.99;86.52;99339.03;5039387;28;20233;-94
2021/07/12 03:14:56;;;;;;;2.70;2.50;;;;;;;16.96;86.30;99336.88;5039274;28;20284;-94
2021/07/12 03:17:25;;;;;;;2.70;2.50;;;;;;;16.95;86.41;99344.16;5014769;28;20407;-94
2021/07/12 03:19:56;;;;;;;2.93;2.73;;;;;;;16.98;86.78;99348.25;5019518;28;20251;-94
2021/07/12 03:22:25;;;;;;;3.00;2.50;;;;;;;16.95;86.71;99348.78;5038767;28;20309;-96
2021/07/12 03:24:53;;;;;;;3.10;2.80;;;;;;;16.93;86.56;99354.47;5039055;28;20239;-94
2021/07/12 03:27:22;;;;;;;2.97;2.73;;;;;;;16.73;86.00;99327.34;5039056;28;20571;-94
2021/07/12 03:29:51;;;;;;;3.30;3.00;;;;;;;16.84;85.68;99360.66;5039697;28;20233;-95
2021/07/12 03:32:27;;;;;;;3.30;3.00;;;;;;;16.73;85.82;99357.94;5038602;28;20226;-95
2021/07/12 03:34:59;;;;;;;3.37;3.17;;;;;;;16.65;85.68;99358.44;5039435;28;20229;-89
2021/07/12 03:37:26;;;;;;;3.20;3.00;;;;;;;16.71;86.04;99370.91;5038848;28;20245;-95
2021/07/12 03:39:55;;;;;;;3.50;3.10;;;;;;;16.66;85.91;99365.47;5072032;28;20228;-90
2021/07/12 03:42:21;;;;;;;3.70;3.00;;;;;;;16.67;85.85;99364.38;5038300;28;20241;-93
2021/07/12 03:44:53;;;;;;;3.07;2.83;;;;;;;16.67;86.23;99367.09;5038291;28;20237;-92
2021/07/12 03:47:25;;;;;;;3.47;2.90;;;;;;;16.72;85.89;99369.81;5056451;28;20222;-90
2021/07/12 03:49:52;;;;;;;3.30;2.77;;;;;;;16.67;86.08;99358.16;5038441;28;20252;-94
2021/07/12 03:52:19;;;;;;;3.20;2.70;;;;;;;16.75;85.93;99360.34;5054903;28;20716;-95
2021/07/12 03:54:46;;;;;;;3.03;2.73;;;;;;;16.73;85.66;99363.34;5071961;28;20236;-93
2021/07/12 03:57:13;;;;;;;2.70;2.50;;;;;;;16.77;85.35;99362.78;5022140;28;20718;-94
2021/07/12 03:59:40;;;;;;;2.77;2.57;;;;;;;16.80;85.33;99354.94;5055084;28;20225;-95
2021/07/12 04:02:06;;;;;;;2.90;2.50;;;;;;;16.87;85.21;99352.00;5037809;28;20283;-95
2021/07/12 04:04:33;;;;;;;2.63;2.40;;;;;;;16.90;85.25;99354.97;5038552;28;20232;-91
2021/07/12 04:07:00;;;;;;;2.97;2.10;;;;;;;17.23;83.76;99342.84;5038353;28;20230;-94
2021/07/12 04:09:27;;;;;;;2.60;2.40;;;;;;;18.53;80.93;99351.06;5022076;28;20241;-95
2021/07/12 04:11:56;;;;;;;3.03;2.50;;;;;;;19.40;76.43;99341.31;5038069;28;20229;-95
2021/07/12 04:14:23;;;;;;;3.57;2.53;;;;;;;20.20;71.67;99342.44;5055374;28;20643;-94
2021/07/12 04:16:49;;;;;;;2.33;2.13;;;;;;;20.85;69.27;99342.78;5055069;28;20263;-96
2021/07/12 04:19:16;;;;;;;2.47;2.27;;;;;;;21.03;68.25;99328.34;5054633;28;20233;-92
2021/07/12 04:21:43;;;;;;;2.10;1.90;;;;;;;21.01;67.69;99348.78;5037961;28;20308;-95
2021/07/12 04:24:09;;;;;;;2.20;2.03;;;;;;;21.12;65.66;99333.13;5054196;28;20229;-93
2021/07/12 04:26:39;;;;;;;2.10;1.90;;;;;;;21.20;67.18;99324.31;5038237;28;20249;-96
2021/07/12 04:29:06;;;;;;;2.67;2.03;;;;;;;21.29;65.36;99327.97;5050913;28;20298;-93
2021/07/12 04:31:33;;;;;;;2.07;1.87;;;;;;;21.73;64.92;99319.34;5034408;28;20313;-89
2021/07/12 04:34:01;;;;;;;1.97;1.70;;;;;;;22.26;62.93;99320.50;5051205;28;20634;-91
2021/07/12 04:36:27;;;;;;;1.70;1.60;;;;;;;22.73;61.52;99321.19;5050883;28;20224;-95
2021/07/12 04:38:54;;;;;;;1.80;1.70;;;;;;;22.48;61.25;99305.34;5034994;28;20282;-94
2021/07/12 04:41:21;;;;;;;1.77;1.50;;;;;;;22.13;62.66;99323.25;5051581;28;20229;-89
2021/07/12 04:43:49;;;;;;;1.70;1.60;;;;;;;21.62;63.29;99302.34;5051520;28;20243;-93
2021/07/12 04:46:15;;;;;;;1.90;1.80;;;;;;;21.47;64.68;99297.16;5067893;28;20527;-89
2021/07/12 04:48:43;;;;;;;3.30;1.77;;;;;;;21.31;65.79;99306.69;5051311;28;20232;-91
2021/07/12 04:51:10;;;;;;;2.23;1.87;;;;;;;21.02;66.49;99301.41;5051825;28;20307;-93
2021/07/12 04:53:36;;;;;;;2.43;2.20;;;;;;;20.84;66.60;99291.34;5034510;28;20324;-93
2021/07/12 04:56:03;;;;;;;2.23;2.00;;;;;;;20.86;66.60;99295.38;5056634;28;20229;-90
2021/07/12 04:58:33;;;;;;;2.17;1.97;;;;;;;20.79;66.88;99308.56;5057997;28;20230;-91
2021/07/12 05:01:00;;;;;;;2.30;2.13;;;;;;;20.78;67.65;99309.66;5041744;28;20236;-93
2021/07/12 05:03:31;;;;;;;2.40;2.00;;;;;;;20.88;66.72;99314.94;5057828;28;20263;-91
2021/07/12 05:05:59;;;;;;;3.10;2.10;;;;;;;20.94;67.41;99313.78;5041626;28;20276;-88
2021/07/12 05:08:25;;;;;;;2.93;2.20;;;;;;;21.06;66.87;99313.31;5058057;28;20239;-91
2021/07/12 05:10:52;;;;;;;2.33;2.13;;;;;;;21.15;66.56;99324.38;5058253;28;20229;-88
2021/07/12 05:13:19;;;;;;;2.40;2.13;;;;;;;21.21;66.19;99310.41;5041348;28;20292;-91
2021/07/12 05:15:46;;;;;;;2.40;2.20;;;;;;;21.32;65.81;99322.72;5057900;28;20316;-93
2021/07/12 05:18:13;;;;;;;1.90;1.80;;;;;;;21.39;66.33;99317.72;5024581;28;20732;-92
2021/07/12 05:20:40;;;;;;;3.40;2.50;;;;;;;21.49;65.56;99305.84;5041335;28;20226;-91
2021/07/12 05:23:07;;;;;;;2.43;2.20;;;;;;;21.67;65.00;99321.34;5074318;28;20635;-91
2021/07/12 05:25:34;;;;;;;3.40;2.50;;;;;;;21.66;64.96;99319.72;5057742;28;20531;-89
2021/07/12 05:28:00;;;;;;;2.73;1.90;;;;;;;21.73;64.84;99316.59;5057042;28;21068;-89
2021/07/12 05:30:27;;;;;;;1.87;1.73;;;;;;;21.67;63.81;99325.97;5058001;28;20227;-91
2021/07/12 05:32:54;;;;;;;1.70;1.60;;;;;;;21.71;63.86;99327.00;5057644;28;20230;-90
2021/07/12 05:35:21;;;;;;;1.40;1.30;;;;;;;21.71;63.17;99327.81;5074771;28;20244;-86
2021/07/12 05:37:47;;;;;;;2.53;1.60;;;;;;;21.74;63.64;99310.84;5024905;28;20308;-90
2021/07/12 05:40:15;;;;;;;2.47;1.70;;;;;;;21.89;63.43;99324.19;5073796;28;20222;-89
2021/07/12 05:42:42;;;;;;;1.60;1.50;;;;;;;21.84;63.25;99323.47;5057461;28;20731;-91
2021/07/12 05:45:09;;;;;;;1.60;1.50;;;;;;;21.90;62.65;99325.00;5040739;28;20252;-91
2021/07/12 05:47:36;;;;;;;1.87;1.77;;;;;;;21.99;62.02;99322.41;5057443;28;20259;-90
2021/07/12 05:50:04;;;;;;;2.10;1.43;;;;;;;22.19;61.01;99324.75;5056916;28;20228;-90
2021/07/12 05:52:32;;;;;;;1.97;1.57;;;;;;;22.28;60.56;99325.66;5041157;28;20229;-89
2021/07/12 05:54:59;;;;;;;2.20;1.40;;;;;;;22.43;60.13;99330.81;5041404;28;20239;-91
2021/07/12 05:57:26;;;;;;;1.50;1.40;;;;;;;22.44;59.61;99321.53;5057486;28;20582;-90
2021/07/12 05:59:52;;;;;;;1.70;1.47;;;;;;;22.22;59.08;99311.31;5040830;28;20243;-91
2021/07/12 06:02:19;;;;;;;1.50;1.30;;;;;;;22.24;59.30;99308.28;5073456;28;20231;-89
2021/07/12 06:04:46;;;;;;;2.50;1.60;;;;;;;22.24;59.96;99308.28;5074093;28;20233;-89
2021/07/12 06:07:14;;;;;;;1.60;1.50;;;;;;;22.31;60.21;99306.75;5054375;28;20277;-90
2021/07/12 06:09:40;;;;;;;1.60;1.50;;;;;;;22.50;59.69;99305.84;5021579;28;20231;-90
2021/07/12 06:12:07;;;;;;;1.43;1.33;;;;;;;22.55;58.92;99305.72;5037214;28;20246;-89
2021/07/12 06:14:34;;;;;;;1.67;1.50;;;;;;;22.50;57.73;99305.84;5037661;28;20224;-87
2021/07/12 06:17:02;;;;;;;1.77;1.30;;;;;;;22.46;58.15;99307.56;5054067;28;20234;-89
2021/07/12 06:19:29;;;;;;;1.40;1.30;;;;;;;22.61;57.37;99309.97;5037196;28;20234;-90
2021/07/12 06:21:56;;;;;;;1.20;1.10;;;;;;;22.73;57.68;99300.16;5020909;28;20225;-91
2021/07/12 06:24:22;;;;;;;1.20;1.13;;;;;;;22.89;57.14;99297.09;5036828;28;20676;-89
2021/07/12 06:26:49;;;;;;;1.20;1.20;;;;;;;23.10;56.50;99284.56;5053934;28;20320;-90
2021/07/12 06:29:17;;;;;;;1.20;1.10;;;;;;;23.24;55.93;99296.22;5054011;28;20282;-91
2021/07/12 06:31:43;;;;;;;1.40;1.30;;;;;;;23.23;55.02;99276.31;5053413;28;20608;-90
2021/07/12 06:34:10;;;;;;;1.60;1.50;;;;;;;23.43;55.40;99294.13;5052735;28;20287;-89
2021/07/12 06:36:37;;;;;;;1.87;1.20;;;;;;;23.62;55.28;99299.41;5053071;28;20230;-90
2021/07/12 06:39:05;;;;;;;1.23;1.13;;;;;;;23.74;55.52;99290.63;5069424;28;20652;-90
2021/07/12 06:41:33;;;;;;;1.63;1.40;;;;;;;23.95;54.21;99297.16;5070209;28;20218;-89
2021/07/12 06:44:00;;;;;;;1.20;1.17;;;;;;;24.06;54.25;99299.31;5056006;28;20797;-90
2021/07/12 06:46:31;;;;;;;1.77;1.10;;;;;;;24.21;54.13;99292.63;5055575;28;20291;-90
2021/07/12 06:49:00;;;;;;;1.42;1.33;;;;;;;24.29;52.92;99288.31;5039847;28;20640;-90
2021/07/12 06:51:26;;;;;;;1.35;1.25;;;;;;;24.33;53.18;99283.81;5019707;28;20246;-90
2021/07/12 06:53:55;;;;;;;1.10;1.10;;;;;;;24.46;53.01;99282.84;5035984;28;20226;-89
2021/07/12 06:56:22;;;;;;;1.48;1.38;;;;;;;24.43;52.89;99283.50;5052372;28;20238;-89
2021/07/12 06:58:48;;;;;;;1.38;1.27;;;;;;;24.51;52.74;99288.19;5044912;28;20231;-89
2021/07/12 07:01:15;;;;;;;1.55;1.45;;;;;;;24.43;52.52;99269.81;5039354;28;20232;-89
2021/07/12 07:03:42;;;;;;;1.30;1.20;;;;;;;24.59;52.42;99275.66;5022554;28;20652;-87
2021/07/12 07:06:09;;;;;;;3.55;1.60;;;;;;;24.62;51.48;99273.06;5055179;28;20268;-89
2021/07/12 07:08:36;;;;;;;1.65;1.55;;;;;;;24.68;51.77;99269.06;5038941;28;20239;-89
2021/07/12 07:11:08;;;;;;;1.60;1.50;;;;;;;24.71;51.88;99270.34;5039847;28;20231;-88
2021/07/12 07:13:34;;;;;;;2.08;1.40;;;;;;;24.72;51.86;99258.25;5038955;28;20279;-88
2021/07/12 07:16:03;;;;;;;1.60;1.50;;;;;;;24.82;51.58;99268.91;5019044;28;20595;-88
2021/07/12 07:18:31;;;;;;;1.67;1.58;;;;;;;24.81;51.49;99268.09;5051248;28;20532;-88
2021/07/12 07:20:59;;;;;;;1.60;1.50;;;;;;;24.95;50.95;99276.19;5043276;28;20281;-89
2021/07/12 07:23:26;;;;;;;1.90;1.70;;;;;;;25.07;50.33;99272.78;5035259;28;20226;-87
2021/07/12 07:25:53;;;;;;;1.80;1.45;;;;;;;25.14;50.67;99267.63;5018677;28;20317;-86
2021/07/12 07:28:20;;;;;;;2.08;1.88;;;;;;;24.52;51.57;99270.63;5045086;28;20275;-88
2021/07/12 07:30:47;;;;;;;1.70;1.60;;;;;;;24.73;50.99;99270.84;5071949;28;20420;-88
2021/07/12 07:33:14;;;;;;;2.85;1.80;;;;;;;24.68;50.86;99277.28;5055172;28;20236;-88
2021/07/12 07:35:41;;;;;;;1.90;1.80;;;;;;;24.82;51.06;99274.38;5038269;28;20234;-87
2021/07/12 07:38:08;;;;;;;2.47;1.70;;;;;;;24.93;50.51;99273.75;5038004;28;20218;-88
2021/07/12 07:40:36;;;;;;;1.30;1.30;;;;;;;25.05;50.67;99275.88;5050542;28;20230;-87
2021/07/12 07:43:04;;;;;;;2.22;1.50;;;;;;;25.03;50.32;99264.41;5021189;28;20224;-89
2021/07/12 07:45:32;;;;;;;1.50;1.40;;;;;;;25.25;49.46;99268.88;5037441;28;20228;-89
2021/07/12 07:47:59;;;;;;;1.73;1.63;;;;;;;25.35;47.65;99265.81;5054369;28;20311;-88
2021/07/12 07:50:26;;;;;;;2.60;1.70;;;;;;;25.53;48.06;99255.59;5037747;28;20267;-88
2021/07/12 07:52:53;;;;;;;1.55;1.45;;;;;;;25.67;48.32;99253.50;5037830;28;20638;-87
2021/07/12 07:55:20;;;;;;;1.48;1.40;;;;;;;25.73;48.56;99253.00;5038362;28;20240;-88
2021/07/12 07:57:47;;;;;;;1.73;1.63;;;;;;;25.80;47.27;99242.31;5086741;28;20232;-88
2021/07/12 08:00:17;;;;;;;1.48;1.38;;;;;;;25.84;47.50;99228.75;5037228;28;20302;-87
2021/07/12 08:02:44;;;;;;;1.70;1.60;;;;;;;25.99;47.11;99232.88;5038144;28;20233;-87
2021/07/12 08:05:11;;;;;;;1.95;1.50;;;;;;;25.83;47.35;99229.88;5054529;28;20608;-86
2021/07/12 08:07:38;;;;;;;2.85;1.40;;;;;;;25.90;47.48;99218.41;5066868;28;20220;-86
2021/07/12 08:10:10;;;;;;;1.30;1.30;;;;;;;26.16;46.98;99224.53;5033342;28;20699;-88
2021/07/12 08:12:37;;;;;;;3.00;1.90;;;;;;;26.02;46.67;99216.56;5027314;28;20243;-88
2021/07/12 08:15:09;;;;;;;2.30;1.70;;;;;;;26.01;47.60;99219.63;5033684;28;20288;-88
2021/07/12 08:17:40;;;;;;;1.73;1.60;;;;;;;26.02;47.49;99215.75;5066530;28;20217;-87
2021/07/12 08:20:11;;;;;;;2.00;1.90;;;;;;;26.27;46.46;99223.84;5037719;28;20232;-88
2021/07/12 08:22:46;;;;;;;1.75;1.48;;;;;;;26.47;46.75;99216.78;5054373;28;20533;-89
2021/07/12 08:25:14;;;;;;;2.30;1.80;;;;;;;26.53;46.51;99211.88;5050341;28;20281;-86
2021/07/12 08:27:41;;;;;;;1.60;1.50;;;;;;;26.73;46.97;99216.59;5024627;28;20224;-87
2021/07/12 08:30:10;;;;;;;1.90;1.80;;;;;;;26.68;46.36;99208.53;5036794;28;20691;-88
2021/07/12 08:32:38;;;;;;;1.88;1.70;;;;;;;26.87;45.46;99214.41;5036897;28;20290;-87
2021/07/12 08:35:05;;;;;;;1.70;1.60;;;;;;;26.88;44.99;99198.69;5037213;28;20235;-88
2021/07/12 08:37:32;;;;;;;2.03;1.92;;;;;;;26.99;45.65;99203.44;5037208;28;20218;-87
2021/07/12 08:39:59;;;;;;;1.92;1.80;;;;;;;26.97;45.81;99200.22;5053218;28;20243;-88
2021/07/12 08:42:26;;;;;;;1.90;1.60;;;;;;;27.11;45.67;99200.72;5035868;28;20227;-87
2021/07/12 08:44:54;;;;;;;2.28;1.70;;;;;;;27.27;45.46;99198.13;5069917;28;20236;-88
2021/07/12 08:47:21;;;;;;;4.32;1.60;;;;;;;27.28;45.22;99193.44;5036074;28;20244;-88
2021/07/12 08:49:48;;;;;;;3.30;1.98;;;;;;;27.49;45.57;99194.19;5034523;28;20294;-87
2021/07/12 08:52:15;;;;;;;1.70;1.60;;;;;;;27.61;43.83;99193.41;5035517;28;20242;-86
2021/07/12 08:54:42;;;;;;;1.70;1.60;;;;;;;27.63;43.95;99191.91;5035729;28;20226;-87
2021/07/12 08:57:10;;;;;;;1.92;1.70;;;;;;;27.76;44.23;99201.81;5030607;28;20323;-87
2021/07/12 08:59:40;;;;;;;2.05;1.67;;;;;;;27.66;44.43;99191.25;5028132;28;20710;-86
2021/07/12 09:02:11;;;;;;;2.08;1.90;;;;;;;27.64;45.37;99178.97;5036793;28;20231;-87
2021/07/12 09:04:40;;;;;;;2.35;1.60;;;;;;;27.72;45.27;99189.03;5053544;28;20240;-86
2021/07/12 09:07:09;;;;;;;2.25;1.90;;;;;;;27.88;44.87;99185.28;5070160;28;20602;-88
2021/07/12 09:09:36;;;;;;;1.70;1.60;;;;;;;27.87;44.49;99180.13;5037134;28;20237;-87
2021/07/12 09:12:15;;;;;;;2.08;1.80;;;;;;;27.91;44.36;99170.00;5020240;28;20256;-86
2021/07/12 09:15:03;;;;;;;1.98;1.80;;;;;;;28.09;42.83;99167.84;5037350;28;20228;-86
2021/07/12 09:17:33;;;;;;;2.78;1.73;;;;;;;28.01;42.46;99158.53;5053402;28;20229;-87
2021/07/12 09:20:00;;;;;;;1.80;1.70;;;;;;;28.03;43.11;99164.50;5035561;28;20329;-87
2021/07/12 09:22:32;;;;;;;1.98;1.80;;;;;;;28.01;42.81;99144.78;5034986;28;20228;-87
2021/07/12 09:25:02;;;;;;;1.88;1.77;;;;;;;28.14;42.89;99164.84;5019344;28;20229;-87
2021/07/12 09:27:31;;;;;;;2.20;2.00;;;;;;;27.99;43.07;99150.66;5080257;28;20321;-86
2021/07/12 09:30:01;;;;;;;2.60;1.95;;;;;;;28.14;43.25;99146.38;5031984;28;20229;-87
2021/07/12 09:32:30;;;;;;;1.80;1.70;;;;;;;28.13;43.47;99141.25;5035742;28;20522;-86
2021/07/12 09:35:01;;;;;;;1.80;1.70;;;;;;;28.29;41.83;99142.09;5037730;28;20280;-87
2021/07/12 09:37:30;;;;;;;2.50;1.60;;;;;;;28.35;41.25;99137.97;5049874;28;20234;-86
2021/07/12 09:39:57;;;;;;;2.25;1.60;;;;;;;28.50;40.52;99136.44;5049151;28;20317;-87
2021/07/12 09:42:26;;;;;;;1.67;1.40;;;;;;;28.60;39.75;99135.94;5017977;28;20234;-86
2021/07/12 09:45:05;;;;;;;2.42;1.17;;;;;;;28.75;38.83;99133.25;5036426;28;20273;-87
2021/07/12 09:47:34;;;;;;;1.38;1.27;;;;;;;28.85;38.26;99137.44;5052745;28;20313;-87
2021/07/12 09:50:12;;;;;;;2.28;1.48;;;;;;;28.77;38.63;99119.13;5061710;28;20272;-87
2021/07/12 09:52:47;;;;;;;1.95;1.67;;;;;;;28.99;37.67;99128.75;5070009;28;20237;-87
2021/07/12 09:55:23;;;;;;;1.77;1.42;;;;;;;29.10;38.76;99125.13;5052810;28;20225;-86
2021/07/12 09:58:12;;;;;;;1.75;1.42;;;;;;;29.23;37.31;99121.13;5038157;28;20218;-87
2021/07/12 10:00:48;;;;;;;1.83;1.73;;;;;;;29.28;36.43;99120.88;5036322;28;20226;-87
2021/07/12 10:03:16;;;;;;;1.70;1.60;;;;;;;29.38;37.51;99122.34;5068270;28;20311;-86
2021/07/12 10:05:47;;;;;;;1.70;1.60;;;;;;;29.54;37.31;99119.53;5069710;28;20711;-86
2021/07/12 10:08:14;;;;;;;1.60;1.50;;;;;;;29.36;37.75;99116.34;5052125;28;20230;-87
2021/07/12 10:10:41;;;;;;;2.67;1.75;;;;;;;29.45;37.70;99107.91;5072073;28;20571;-86
2021/07/12 10:13:08;;;;;;;2.35;1.90;;;;;;;29.32;37.91;99104.44;5037318;28;20231;-87
2021/07/12 10:15:35;;;;;;;2.08;1.98;;;;;;;29.36;38.30;99110.03;5054612;28;20238;-86
2021/07/12 10:18:03;;;;;;;2.10;2.00;;;;;;;29.35;38.04;99113.97;5036007;28;20238;-87
2021/07/12 10:20:33;;;;;;;2.10;2.00;;;;;;;29.50;38.92;99110.38;5036522;28;20240;-87
2021/07/12 10:23:02;;;;;;;2.15;2.05;;;;;;;29.50;38.62;99102.91;5053288;28;20234;-87
2021/07/12 10:25:33;;;;;;;2.78;2.20;;;;;;;29.62;38.54;99108.34;5052944;28;20321;-87
2021/07/12 10:28:09;;;;;;;2.45;2.08;;;;;;;29.67;38.85;99093.47;5052767;28;20644;-87
2021/07/12 10:30:48;;;;;;;2.35;2.15;;;;;;;29.70;38.56;99104.59;5059695;28;20236;-87
2021/07/12 10:33:17;;;;;;;2.80;2.60;;;;;;;29.61;38.89;99103.16;5053376;28;20229;-87
2021/07/12 10:35:51;;;;;;;2.40;2.30;;;;;;;29.69;38.58;99093.91;5052059;28;20232;-87
2021/07/12 10:38:24;;;;;;;2.15;1.98;;;;;;;29.50;39.24;99083.59;5061164;28;20216;-86
2021/07/12 10:41:01;;;;;;;2.42;2.10;;;;;;;29.22;41.73;99096.66;5072416;28;20241;-87
2021/07/12 10:44:03;;;;;;;2.75;2.58;;;;;;;29.36;42.06;99093.47;5055980;28;20255;-87
2021/07/12 10:46:30;;;;;;;2.40;2.20;;;;;;;29.60;42.26;99083.03;5055639;28;20249;-87
2021/07/12 10:49:03;;;;;;;2.50;2.30;;;;;;;29.76;42.68;99094.06;5056795;28;20259;-87
2021/07/12 10:51:40;;;;;;;2.88;2.63;;;;;;;30.09;41.37;99086.19;5055951;28;20225;-87
2021/07/12 10:54:12;;;;;;;3.17;2.40;;;;;;;30.35;40.54;99065.38;5054804;28;20229;-87
2021/07/12 10:56:43;;;;;;;2.45;2.25;;;;;;;30.73;39.47;99087.50;5071608;28;20308;-86
2021/07/12 10:59:42;;;;;;;2.20;2.00;;;;;;;30.67;39.91;99091.72;5029779;28;20229;-86
2021/07/12 11:02:15;;;;;;;4.07;2.10;;;;;;;30.57;40.10;99081.25;5045103;28;20662;-86
2021/07/12 11:04:50;;;;;;;2.55;2.35;;;;;;;30.92;38.23;99064.53;5055123;28;20222;-86
2021/07/12 11:07:19;;;;;;;5.25;3.33;;;;;;;30.98;39.07;99074.91;5063678;28;20232;-85
2021/07/12 11:09:49;;;;;;;2.63;2.42;;;;;;;30.77;39.39;99063.47;5055226;28;20225;-87
2021/07/12 11:12:52;;;;;;;2.33;2.13;;;;;;;30.56;39.56;99054.78;5061521;28;20271;-87
2021/07/12 11:15:22;;;;;;;2.17;2.08;;;;;;;30.60;40.05;99069.47;5064784;28;20233;-88
2021/07/12 11:18:09;;;;;;;2.72;2.53;;;;;;;30.54;39.90;99055.13;5048436;28;20312;-87
2021/07/12 11:20:58;;;;;;;2.38;2.20;;;;;;;30.44;40.62;99058.47;5036831;28;20226;-87
2021/07/12 11:23:41;;;;;;;2.50;2.30;;;;;;;30.57;40.69;99059.13;5037552;28;20229;-87
2021/07/12 11:26:40;;;;;;;2.30;2.20;;;;;;;30.45;39.86;99053.72;5062354;28;20569;-87
2021/07/12 11:29:15;;;;;;;2.28;2.17;;;;;;;30.71;39.66;99048.34;5053779;28;20237;-86
2021/07/12 11:31:50;;;;;;;2.58;2.38;;;;;;;30.82;39.26;99049.34;5048407;28;20592;-86
2021/07/12 11:34:24;;;;;;;3.28;2.28;;;;;;;30.88;39.87;99038.78;5033701;28;20272;-86
2021/07/12 11:36:56;;;;;;;2.40;2.30;;;;;;;30.89;39.54;99040.38;5050899;28;20287;-87
2021/07/12 11:39:39;;;;;;;2.60;2.40;;;;;;;30.70;40.21;99019.09;5052262;28;20506;-88
2021/07/12 11:42:16;;;;;;;2.40;2.20;;;;;;;30.78;40.54;99029.13;5038474;28;20257;-87
2021/07/12 11:45:06;;;;;;;2.55;2.40;;;;;;;30.82;39.15;99029.97;5034364;28;20618;-87
2021/07/12 11:47:38;;;;;;;2.80;2.60;;;;;;;30.91;39.40;99021.44;5067551;28;20226;-86
2021/07/12 11:50:15;;;;;;;2.80;2.60;;;;;;;30.83;39.21;99008.66;5037294;28;20230;-86
2021/07/12 11:52:47;;;;;;;2.55;2.35;;;;;;;30.92;39.53;99011.97;5054076;28;20529;-87